KRNT

Details ICAO KRNT (RNT)
Name Renton Muni
Region United States
Timezone America/Los_Angeles (UTC-8.0)
Plans Departing 99
Arriving 30
Stats Elevation 32 ft / 10 m (AMSL)
Location 47.493133° -122.215743°
Runways 1
Magnetic Variation 15.678° E
Sunrise 2017-12-13 15:50:01 UTC / 2017-12-13 07:50:01 Local
Sunset 2017-12-14 00:19:15 UTC / 2017-12-13 16:19:15 Local
Advertisement - Login to hide

Runways

ID Width Length Bearing (true) Bearing (mag) Surface Threshold Offset Overrun Length
16 200 ft / 61 m 5,384 ft / 1,641 m 174.16° 158.48° Asphalt 299 ft / 91 m 0 ft / 0 m
34 200 ft / 61 m 5,384 ft / 1,641 m 354.17° 338.49° Asphalt 341 ft / 104 m 210 ft / 64 m

Map

Weather


0- 5 10 15 20 25 30 35+ Temperature / ° C

Clouds and Precipitation
Forecast for 2017-12-14 06:00 UTC. Updated an hour ago

Ground ~20,000 ft ~40,000 ft Winds

METAR

KRNT 140553Z AUTO 00000KT 10SM CLR 04/02 A3040 RMK AO2 SLP298 T00390017 10083 20039 51009 $

TAF

Not found

Frequencies

Recorded 126.95 MHz ATIS
Unicom 122.85 MHz UNICOM
Ground 121.60 MHz GND
Tower 124.70 MHz TWR
Approach 120.10 MHz SEATTLE APP/DEP
Approach 125.90 MHz SEATTLE APP/DEP
Unicom 124.70 MHz CTAF
Unicom 122.95 MHz UNICOM
Tower 128.80 MHz unnamed entity
Approach 119.20 MHz SEATTLE APP/DEP
Approach 120.40 MHz SEATTLE APP/DEP
Warning: Do not use this data for real-world aviation or navigation. No guarantee of current accuracy is given.